createdAt,value
2023-01-21T00:02:06.287Z,97196.84
2023-01-21T00:04:32.774Z,97197.88
2023-01-21T00:06:59.356Z,97174.47
2023-01-21T00:09:25.892Z,97204.53
2023-01-21T00:11:52.373Z,97193.97
2023-01-21T00:14:19.005Z,97196.22
2023-01-21T00:16:45.495Z,97203.38
2023-01-21T00:19:12.017Z,97196.28
2023-01-21T00:21:38.730Z,97204.75
2023-01-21T00:24:05.477Z,97199.31
2023-01-21T00:26:32.037Z,97215.97
2023-01-21T00:28:58.545Z,97186.91
2023-01-21T00:31:25.204Z,97155.63
2023-01-21T00:33:51.844Z,97210.84
2023-01-21T00:36:18.351Z,97204.63
2023-01-21T00:38:46.882Z,97193.00
2023-01-21T00:41:13.661Z,97188.75
2023-01-21T00:43:42.239Z,97191.41
2023-01-21T00:46:08.824Z,97208.47
2023-01-21T00:48:35.421Z,97193.44
2023-01-21T00:51:02.053Z,97185.63
2023-01-21T00:53:29.841Z,97213.09
2023-01-21T00:56:03.707Z,97215.34
2023-01-21T00:58:30.416Z,97191.13
2023-01-21T01:01:01.508Z,97217.19
2023-01-21T01:03:28.225Z,97192.56
2023-01-21T01:05:54.786Z,97220.44
2023-01-21T01:08:21.319Z,97227.53
2023-01-21T01:10:47.807Z,97200.13
2023-01-21T01:13:14.254Z,97211.28
2023-01-21T01:15:40.824Z,97222.25
2023-01-21T01:18:07.435Z,97211.28
2023-01-21T01:20:33.968Z,97201.56
2023-01-21T01:23:00.464Z,97211.28
2023-01-21T01:25:26.960Z,97205.56
2023-01-21T01:27:53.441Z,97214.13
2023-01-21T01:30:19.976Z,97214.13
2023-01-21T01:32:46.509Z,97217.59
2023-01-21T01:35:13.375Z,97230.59
2023-01-21T01:37:40.035Z,97239.97
2023-01-21T01:40:07.397Z,97217.38
2023-01-21T01:42:34.175Z,97235.88
2023-01-21T01:45:04.035Z,97241.38
2023-01-21T01:47:40.222Z,97247.03
2023-01-21T01:50:07.282Z,97237.31
2023-01-21T01:52:33.770Z,97253.97
2023-01-21T01:55:00.339Z,97223.28
2023-01-21T01:57:31.320Z,97259.06
2023-01-21T01:59:57.977Z,97242.38
2023-01-21T02:02:24.538Z,97216.00
2023-01-21T02:04:53.665Z,97231.84
2023-01-21T02:07:20.644Z,97214.38
2023-01-21T02:09:47.157Z,97228.78
2023-01-21T02:12:13.696Z,97243.47
2023-01-21T02:14:40.205Z,97243.81
2023-01-21T02:17:23.879Z,97246.03
2023-01-21T02:20:17.870Z,97247.47
2023-01-21T02:22:56.530Z,97238.34
2023-01-21T02:25:38.170Z,97231.22
2023-01-21T02:28:19.866Z,97238.19
2023-01-21T02:31:17.382Z,97233.06
2023-01-21T02:33:50.523Z,97234.69
2023-01-21T02:36:35.091Z,97234.66
2023-01-21T02:39:27.590Z,97239.78
2023-01-21T02:42:04.728Z,97255.66
2023-01-21T02:44:31.399Z,97234.75
2023-01-21T02:47:16.648Z,97237.78
2023-01-21T02:49:53.027Z,97225.56
2023-01-21T02:52:21.025Z,97183.75
2023-01-21T02:54:49.142Z,97223.78
2023-01-21T02:57:19.008Z,97211.75
2023-01-21T02:59:47.725Z,97231.69
2023-01-21T03:02:39.122Z,97252.84
2023-01-21T03:05:11.651Z,97231.28
2023-01-21T03:08:11.692Z,97223.97
2023-01-21T03:10:48.591Z,97235.75
2023-01-21T03:13:18.637Z,97259.75
2023-01-21T03:15:52.390Z,97229.69
2023-01-21T03:18:29.510Z,97242.91
2023-01-21T03:20:58.879Z,97216.09
2023-01-21T03:23:36.811Z,97219.94
2023-01-21T03:26:03.405Z,97236.44
2023-01-21T03:28:31.930Z,97230.53
2023-01-21T03:31:12.691Z,97233.16
2023-01-21T03:33:40.187Z,97229.88
2023-01-21T03:36:14.394Z,97238.25
2023-01-21T03:38:46.048Z,97235.00
2023-01-21T03:41:23.467Z,97207.38
2023-01-21T03:43:50.690Z,97230.34
2023-01-21T03:46:40.422Z,97204.72
2023-01-21T03:49:25.232Z,97206.16
2023-01-21T03:51:53.934Z,97206.16
2023-01-21T03:54:20.530Z,97228.09
2023-01-21T03:56:47.148Z,97224.44
2023-01-21T03:59:13.717Z,97195.16
2023-01-21T04:01:40.260Z,97210.41
2023-01-21T04:04:08.672Z,97212.44
2023-01-21T04:06:35.232Z,97201.28
2023-01-21T04:09:01.805Z,97196.00
2023-01-21T04:11:28.325Z,97220.56
2023-01-21T04:13:54.946Z,97210.81
2023-01-21T04:16:22.158Z,97220.75
2023-01-21T04:18:48.726Z,97189.91
2023-01-21T04:21:15.296Z,97215.28
2023-01-21T04:23:41.894Z,97204.53
2023-01-21T04:26:08.503Z,97226.44
2023-01-21T04:28:37.226Z,97218.34
2023-01-21T04:31:03.869Z,97228.09
2023-01-21T04:33:30.403Z,97207.56
2023-01-21T04:35:57.926Z,97202.31
2023-01-21T04:38:24.563Z,97222.81
2023-01-21T04:40:51.637Z,97252.84
2023-01-21T04:43:18.261Z,97219.16
2023-01-21T04:45:44.808Z,97232.97
2023-01-21T04:48:11.461Z,97234.81
2023-01-21T04:50:37.967Z,97222.81
2023-01-21T04:53:04.527Z,97227.69
2023-01-21T04:55:31.086Z,97219.38
2023-01-21T04:58:04.115Z,97214.28
2023-01-21T05:00:37.354Z,97223.00
2023-01-21T05:03:04.231Z,97239.25
2023-01-21T05:05:30.904Z,97232.97
2023-01-21T05:07:57.478Z,97211.63
2023-01-21T05:10:24.028Z,97230.75
2023-01-21T05:12:50.619Z,97229.31
2023-01-21T05:15:17.206Z,97226.03
2023-01-21T05:17:43.723Z,97229.31
2023-01-21T05:20:10.885Z,97200.66
2023-01-21T05:22:37.528Z,97235.00
2023-01-21T05:25:05.092Z,97238.66
2023-01-21T05:27:31.671Z,97226.88
2023-01-21T05:29:58.247Z,97221.19
2023-01-21T05:32:24.919Z,97232.34
2023-01-21T05:34:51.462Z,97223.84
2023-01-21T05:37:18.093Z,97252.88
2023-01-21T05:39:44.614Z,97224.63
2023-01-21T05:42:11.153Z,97229.91
2023-01-21T05:44:37.714Z,97213.28
2023-01-21T05:47:04.267Z,97226.47
2023-01-21T05:49:30.800Z,97226.88
2023-01-21T05:51:57.335Z,97237.25
2023-01-21T05:54:23.833Z,97233.38
2023-01-21T05:56:50.402Z,97222.63
2023-01-21T05:59:16.911Z,97195.59
2023-01-21T06:01:43.428Z,97202.09
2023-01-21T06:04:09.969Z,97221.19
2023-01-21T06:06:36.593Z,97217.94
2023-01-21T06:09:03.120Z,97227.28
2023-01-21T06:11:29.731Z,97214.09
2023-01-21T06:13:56.381Z,97233.75
2023-01-21T06:16:23.023Z,97214.72
2023-01-21T06:18:49.630Z,97247.19
2023-01-21T06:21:16.171Z,97244.94
2023-01-21T06:23:42.763Z,97205.75
2023-01-21T06:26:09.398Z,97235.41
2023-01-21T06:28:36.009Z,97223.84
2023-01-21T06:31:02.966Z,97252.66
2023-01-21T06:33:29.658Z,97253.91
2023-01-21T06:35:56.162Z,97244.13
2023-01-21T06:38:22.723Z,97249.19
2023-01-21T06:40:49.305Z,97229.09
2023-01-21T06:43:15.948Z,97230.13
2023-01-21T06:45:42.526Z,97247.59
2023-01-21T06:48:09.055Z,97247.16
2023-01-21T06:50:35.669Z,97223.22
2023-01-21T06:53:02.337Z,97239.69
2023-01-21T06:55:28.865Z,97238.25
2023-01-21T06:57:55.473Z,97237.84
2023-01-21T07:00:22.199Z,97250.03
2023-01-21T07:02:48.916Z,97264.44
2023-01-21T07:05:15.886Z,97246.78
2023-01-21T07:07:42.782Z,97247.16
2023-01-21T07:10:09.987Z,97266.69
2023-01-21T07:12:36.657Z,97260.59
2023-01-21T07:15:03.402Z,97247.78
2023-01-21T07:17:29.932Z,97262.22
2023-01-21T07:19:56.555Z,97274.38
2023-01-21T07:22:23.164Z,97269.31
2023-01-21T07:24:49.741Z,97225.00
2023-01-21T07:27:16.328Z,97287.81
2023-01-21T07:29:42.878Z,97284.56
2023-01-21T07:32:09.456Z,97260.16
2023-01-21T07:34:35.970Z,97284.94
2023-01-21T07:37:02.571Z,97283.94
2023-01-21T07:39:29.119Z,97328.25
2023-01-21T07:41:55.724Z,97304.47
2023-01-21T07:44:22.296Z,97294.91
2023-01-21T07:46:48.823Z,97283.53
2023-01-21T07:49:15.367Z,97291.25
2023-01-21T07:51:41.921Z,97287.19
2023-01-21T07:54:09.778Z,97288.97
2023-01-21T07:56:36.629Z,97280.06
2023-01-21T07:59:03.138Z,97280.22
2023-01-21T08:01:29.762Z,97304.81
2023-01-21T08:03:56.717Z,97292.88
2023-01-21T08:06:23.566Z,97293.03
2023-01-21T08:08:50.073Z,97288.56
2023-01-21T08:11:16.726Z,97291.38
2023-01-21T08:13:43.545Z,97312.91
2023-01-21T08:16:10.270Z,97302.75
2023-01-21T08:18:36.879Z,97299.53
2023-01-21T08:21:03.638Z,97276.53
2023-01-21T08:23:30.281Z,97293.81
2023-01-21T08:25:56.800Z,97271.81
2023-01-21T08:28:23.531Z,97301.13
2023-01-21T08:30:50.590Z,97299.06
2023-01-21T08:33:17.532Z,97295.44
2023-01-21T08:35:44.427Z,97315.72
2023-01-21T08:38:11.182Z,97319.63
2023-01-21T08:40:37.730Z,97307.19
2023-01-21T08:43:04.626Z,97314.88
2023-01-21T08:45:31.295Z,97324.00
2023-01-21T08:47:57.939Z,97285.59
2023-01-21T08:50:25.032Z,97301.63
2023-01-21T08:52:52.627Z,97303.88
2023-01-21T08:55:19.631Z,97263.41
2023-01-21T08:57:46.353Z,97293.06
2023-01-21T09:00:13.709Z,97285.34
2023-01-21T09:02:40.645Z,97293.72
2023-01-21T09:05:07.884Z,97325.25
2023-01-21T09:07:34.423Z,97314.50
2023-01-21T09:10:01.158Z,97319.09
2023-01-21T09:12:27.672Z,97301.16
2023-01-21T09:14:54.242Z,97320.88
2023-01-21T09:17:20.843Z,97329.00
2023-01-21T09:19:47.446Z,97313.44
2023-01-21T09:22:14.123Z,97309.72
2023-01-21T09:24:41.051Z,97314.72
2023-01-21T09:27:08.159Z,97309.09
2023-01-21T09:29:34.747Z,97339.31
2023-01-21T09:32:01.493Z,97301.34
2023-01-21T09:34:28.151Z,97319.22
2023-01-21T09:36:54.985Z,97298.06
2023-01-21T09:39:21.497Z,97312.53
2023-01-21T09:41:55.106Z,97327.50
2023-01-21T09:44:29.202Z,97350.13
2023-01-21T09:47:17.073Z,97340.88
2023-01-21T09:49:54.858Z,97341.59
2023-01-21T09:52:27.395Z,97330.28
2023-01-21T09:54:55.031Z,97326.38
2023-01-21T09:57:39.981Z,97338.13
2023-01-21T10:00:35.992Z,97346.81
2023-01-21T10:03:08.607Z,97337.00
2023-01-21T10:05:53.481Z,97332.44
2023-01-21T10:08:28.928Z,97317.44
2023-01-21T10:10:58.528Z,97355.13
2023-01-21T10:13:48.360Z,97354.75
2023-01-21T10:16:27.584Z,97340.72
2023-01-21T10:18:54.163Z,97294.38
2023-01-21T10:21:31.179Z,97315.34
2023-01-21T10:24:18.860Z,97313.69
2023-01-21T10:26:45.862Z,97219.88
2023-01-21T10:29:19.525Z,97360.69
2023-01-21T10:31:51.648Z,97332.94
2023-01-21T10:34:18.562Z,97317.38
2023-01-21T10:36:44.962Z,97325.94
2023-01-21T10:39:27.015Z,97327.47
2023-01-21T10:42:18.503Z,97326.94
2023-01-21T10:44:57.228Z,97337.47
2023-01-21T10:47:27.424Z,97312.25
2023-01-21T10:50:26.109Z,97315.69
2023-01-21T10:53:29.435Z,97325.78
2023-01-21T10:56:00.277Z,97330.06
2023-01-21T10:58:31.585Z,97325.34
2023-01-21T11:00:59.490Z,97331.28
2023-01-21T11:03:33.524Z,97324.00
2023-01-21T11:06:00.164Z,97334.44
2023-01-21T11:08:26.935Z,97331.69
2023-01-21T11:10:53.751Z,97321.78
2023-01-21T11:13:20.408Z,97322.25
2023-01-21T11:15:57.029Z,97290.19
2023-01-21T11:18:33.273Z,97309.97
2023-01-21T11:21:16.492Z,97306.28
2023-01-21T11:23:43.209Z,97317.06
2023-01-21T11:26:18.790Z,97311.75
2023-01-21T11:28:45.389Z,97306.00
2023-01-21T11:31:14.988Z,97318.22
2023-01-21T11:33:42.509Z,97300.28
2023-01-21T11:36:13.687Z,97303.47
2023-01-21T11:38:44.083Z,97313.88
2023-01-21T11:41:15.467Z,97305.53
2023-01-21T11:43:53.023Z,97304.56
2023-01-21T11:46:28.514Z,97281.88
2023-01-21T11:49:00.299Z,97316.09
2023-01-21T11:51:29.939Z,97248.03
2023-01-21T11:54:22.086Z,97294.50
2023-01-21T11:56:55.719Z,97309.06
2023-01-21T11:59:34.000Z,97280.41
2023-01-21T12:02:20.731Z,97289.13
2023-01-21T12:04:55.670Z,97271.66
2023-01-21T12:07:27.115Z,97262.94
2023-01-21T12:10:06.746Z,97237.94
2023-01-21T12:12:57.921Z,97258.31
2023-01-21T12:15:45.462Z,97243.44
2023-01-21T12:18:19.608Z,97270.13
2023-01-21T12:21:04.043Z,97274.31
2023-01-21T12:23:47.308Z,97255.38
2023-01-21T12:26:32.076Z,97257.59
2023-01-21T12:29:13.981Z,97242.31
2023-01-21T12:31:47.410Z,97251.97
2023-01-21T12:34:51.581Z,97259.91
2023-01-21T12:37:21.032Z,97261.63
2023-01-21T12:39:50.787Z,97246.66
2023-01-21T12:42:27.734Z,97254.81
2023-01-21T12:44:56.928Z,97254.94
2023-01-21T12:47:25.289Z,97239.72
2023-01-21T12:50:31.024Z,97250.31
2023-01-21T12:53:20.353Z,97242.78
2023-01-21T12:56:10.578Z,97266.41
2023-01-21T12:58:43.187Z,97274.09
2023-01-21T13:01:11.947Z,97262.53
2023-01-21T13:03:59.907Z,97274.22
2023-01-21T13:06:53.238Z,97264.78
2023-01-21T13:09:38.664Z,97241.56
2023-01-21T13:12:13.243Z,97244.44
2023-01-21T13:14:41.146Z,97264.22
2023-01-21T13:17:13.569Z,97253.06
2023-01-21T13:19:40.141Z,97248.94
2023-01-21T13:22:24.085Z,97275.41
2023-01-21T13:25:01.332Z,97258.63
2023-01-21T13:27:39.823Z,97249.81
2023-01-21T13:30:40.593Z,97270.63
2023-01-21T13:33:25.220Z,97247.38
2023-01-21T13:36:06.590Z,97265.97
2023-01-21T13:38:49.645Z,97279.56
2023-01-21T13:41:42.180Z,97258.50
2023-01-21T13:44:19.708Z,97277.06
2023-01-21T13:47:17.073Z,97277.50
2023-01-21T13:50:01.897Z,97267.38
2023-01-21T13:52:49.328Z,97275.16
2023-01-21T13:55:44.036Z,97296.22
2023-01-21T13:58:13.219Z,97286.97
2023-01-21T14:00:52.299Z,97286.13
2023-01-21T14:03:37.525Z,97279.53
2023-01-21T14:06:23.567Z,97255.88
2023-01-21T14:09:13.525Z,97281.22
2023-01-21T14:12:30.010Z,97270.78
2023-01-21T14:15:36.710Z,97281.38
2023-01-21T14:18:09.062Z,97270.41
2023-01-21T14:20:46.420Z,97260.53
2023-01-21T14:23:38.546Z,97269.41
2023-01-21T14:26:36.890Z,97274.69
2023-01-21T14:29:30.203Z,97265.91
2023-01-21T14:32:21.036Z,97270.25
2023-01-21T14:34:57.056Z,97290.16
2023-01-21T14:37:28.750Z,97268.41
2023-01-21T14:40:25.631Z,97299.78
2023-01-21T14:42:52.144Z,97306.06
2023-01-21T14:45:20.621Z,97289.81
2023-01-21T14:47:48.867Z,97316.94
2023-01-21T14:50:44.115Z,97278.44
2023-01-21T14:53:31.502Z,97301.25
2023-01-21T14:56:21.732Z,97299.63
2023-01-21T14:58:50.111Z,97297.13
2023-01-21T15:01:35.411Z,97296.13
2023-01-21T15:04:04.233Z,97285.34
2023-01-21T15:06:30.748Z,97303.03
2023-01-21T15:08:58.918Z,97312.63
2023-01-21T15:11:30.916Z,97306.56
2023-01-21T15:14:14.356Z,97314.25
2023-01-21T15:16:44.413Z,97293.88
2023-01-21T15:19:11.833Z,97287.13
2023-01-21T15:21:41.382Z,97308.69
2023-01-21T15:24:29.931Z,97310.97
2023-01-21T15:27:14.700Z,97322.84
2023-01-21T15:29:42.745Z,97313.88
2023-01-21T15:32:21.469Z,97309.59
2023-01-21T15:34:48.824Z,97317.13
2023-01-21T15:37:20.878Z,97310.22
2023-01-21T15:39:48.292Z,97313.88
2023-01-21T15:42:36.019Z,97321.78
2023-01-21T15:45:12.240Z,97339.00
2023-01-21T15:47:47.156Z,97318.38
2023-01-21T15:50:27.702Z,97298.50
2023-01-21T15:53:03.377Z,97302.94
2023-01-21T15:55:48.207Z,97334.69
2023-01-21T15:58:14.616Z,97320.88
2023-01-21T16:00:57.588Z,97325.81
2023-01-21T16:03:29.144Z,97322.28
2023-01-21T16:06:19.993Z,97338.41
2023-01-21T16:09:04.855Z,97333.09
2023-01-21T16:11:56.366Z,97345.50
2023-01-21T16:14:45.023Z,97354.63
2023-01-21T16:17:36.048Z,97314.97
2023-01-21T16:20:04.031Z,97324.13
2023-01-21T16:22:32.242Z,97344.88
2023-01-21T16:25:01.675Z,97313.59
2023-01-21T16:27:29.591Z,97334.72
2023-01-21T16:29:57.310Z,97335.78
2023-01-21T16:32:23.916Z,97333.75
2023-01-21T16:34:50.415Z,97358.38
2023-01-21T16:37:19.329Z,97323.41
2023-01-21T16:39:46.457Z,97348.59
2023-01-21T16:42:38.187Z,97328.25
2023-01-21T16:45:15.982Z,97328.66
2023-01-21T16:47:42.746Z,97313.00
2023-01-21T16:50:35.667Z,97334.16
2023-01-21T16:53:06.155Z,97332.75
2023-01-21T16:55:32.699Z,97227.41
2023-01-21T16:57:59.391Z,97313.66
2023-01-21T17:00:28.388Z,97345.38
2023-01-21T17:02:55.715Z,97351.66
2023-01-21T17:05:23.075Z,97331.16
2023-01-21T17:07:52.727Z,97346.19
2023-01-21T17:10:24.614Z,97350.25
2023-01-21T17:13:01.529Z,97347.41
2023-01-21T17:15:38.088Z,97347.41
2023-01-21T17:18:23.447Z,97376.50
2023-01-21T17:20:52.801Z,97358.41
2023-01-21T17:23:19.189Z,97348.66
2023-01-21T17:25:45.902Z,97349.88
2023-01-21T17:28:18.949Z,97351.09
2023-01-21T17:30:45.908Z,97362.47
2023-01-21T17:33:26.989Z,97355.16
2023-01-21T17:36:16.542Z,97367.53
2023-01-21T17:38:44.454Z,97368.78
2023-01-21T17:41:29.958Z,97354.56
2023-01-21T17:43:56.498Z,97386.91
2023-01-21T17:46:23.710Z,97372.66
2023-01-21T17:48:51.637Z,97343.53
2023-01-21T17:51:20.503Z,97385.91
2023-01-21T17:53:57.253Z,97379.19
2023-01-21T17:56:36.946Z,97381.25
2023-01-21T17:59:03.752Z,97375.13
2023-01-21T18:01:30.462Z,97386.50
2023-01-21T18:03:57.176Z,97392.63
2023-01-21T18:06:27.981Z,97395.91
2023-01-21T18:08:56.223Z,97369.84
2023-01-21T18:11:22.793Z,97377.78
2023-01-21T18:13:49.346Z,97379.38
2023-01-21T18:16:15.946Z,97379.16
2023-01-21T18:18:42.547Z,97362.47
2023-01-21T18:21:17.599Z,97377.56
2023-01-21T18:23:44.060Z,97383.84
2023-01-21T18:26:16.859Z,97389.56
2023-01-21T18:28:43.374Z,97388.13
2023-01-21T18:31:10.260Z,97411.31
2023-01-21T18:33:36.911Z,97392.78
2023-01-21T18:36:03.461Z,97389.53
2023-01-21T18:38:32.629Z,97401.91
2023-01-21T18:41:00.043Z,97414.56
2023-01-21T18:43:26.580Z,97359.84
2023-01-21T18:45:54.433Z,97403.16
2023-01-21T18:48:22.967Z,97410.31
2023-01-21T18:50:49.553Z,97378.97
2023-01-21T18:53:16.116Z,97400.31
2023-01-21T18:55:43.889Z,97405.22
2023-01-21T18:58:13.637Z,97386.31
2023-01-21T19:00:40.447Z,97403.19
2023-01-21T19:03:07.095Z,97410.09
2023-01-21T19:05:36.035Z,97388.13
2023-01-21T19:08:02.631Z,97396.28
2023-01-21T19:10:29.132Z,97429.41
2023-01-21T19:12:55.820Z,97395.03
2023-01-21T19:15:26.370Z,97391.81
2023-01-21T19:17:52.995Z,97400.75
2023-01-21T19:20:24.047Z,97379.19
2023-01-21T19:22:51.461Z,97405.22
2023-01-21T19:25:40.470Z,97376.94
2023-01-21T19:28:09.447Z,97374.09
2023-01-21T19:30:36.450Z,97377.72
2023-01-21T19:33:05.484Z,97393.00
2023-01-21T19:35:38.769Z,97413.75
2023-01-21T19:38:13.835Z,97389.97
2023-01-21T19:40:41.928Z,97412.72
2023-01-21T19:43:12.433Z,97406.03
2023-01-21T19:45:39.141Z,97381.00
2023-01-21T19:48:08.033Z,97416.19
2023-01-21T19:50:34.754Z,97404.22
2023-01-21T19:53:15.606Z,97406.22
2023-01-21T19:56:04.863Z,97466.69
2023-01-21T19:58:31.547Z,97403.19
2023-01-21T20:00:58.190Z,97408.88
2023-01-21T20:03:30.734Z,97406.66
2023-01-21T20:06:02.614Z,97431.25
2023-01-21T20:08:29.722Z,97397.91
2023-01-21T20:11:02.242Z,97435.13
2023-01-21T20:13:28.916Z,97380.81
2023-01-21T20:15:55.703Z,97424.75
2023-01-21T20:18:24.092Z,97391.56
2023-01-21T20:20:50.854Z,97409.06
2023-01-21T20:23:17.842Z,97411.72
2023-01-21T20:28:49.356Z,97413.94
2023-01-21T20:31:16.142Z,97419.66
2023-01-21T20:33:45.683Z,97390.78
2023-01-21T20:36:24.096Z,97408.25
2023-01-21T20:38:57.367Z,97402.38
2023-01-21T20:41:24.024Z,97406.25
2023-01-21T20:44:11.254Z,97426.59
2023-01-21T20:46:43.931Z,97408.09
2023-01-21T20:49:42.753Z,97411.13
2023-01-21T20:52:12.222Z,97396.47
2023-01-21T20:54:41.917Z,97388.94
2023-01-21T20:57:21.123Z,97449.59
2023-01-21T20:59:47.852Z,97407.47
2023-01-21T21:02:14.421Z,97424.34
2023-01-21T21:04:40.973Z,97418.03
2023-01-21T21:07:16.021Z,97400.34
2023-01-21T21:09:42.658Z,97401.59
2023-01-21T21:12:12.231Z,97370.44
2023-01-21T21:14:38.765Z,97424.13
2023-01-21T21:17:08.846Z,97432.47
2023-01-21T21:19:35.431Z,97433.72
2023-01-21T21:22:02.052Z,97414.38
2023-01-21T21:24:28.725Z,97430.84
2023-01-21T21:26:55.649Z,97420.69
2023-01-21T21:29:22.266Z,97414.75
2023-01-21T21:31:49.164Z,97437.38
2023-01-21T21:34:15.760Z,97417.84
2023-01-21T21:36:42.397Z,97436.16
2023-01-21T21:39:09.143Z,97419.25
2023-01-21T21:41:35.656Z,97423.53
2023-01-21T21:44:02.186Z,97446.09
2023-01-21T21:46:28.759Z,97443.06
2023-01-21T21:48:55.305Z,97421.50
2023-01-21T21:51:22.155Z,97422.75
2023-01-21T21:53:48.703Z,97454.44
2023-01-21T21:56:19.678Z,97419.66
2023-01-21T21:58:46.196Z,97413.56
2023-01-21T22:01:14.741Z,97434.94
2023-01-21T22:03:41.561Z,97434.13
2023-01-21T22:06:08.261Z,97436.56
2023-01-21T22:08:36.121Z,97441.84
2023-01-21T22:11:04.271Z,97438.00
2023-01-21T22:13:32.113Z,97442.06
2023-01-21T22:15:59.916Z,97425.16
2023-01-21T22:18:27.360Z,97431.47
2023-01-21T22:20:59.829Z,97439.41
2023-01-21T22:23:26.428Z,97419.88
2023-01-21T22:25:53.013Z,97408.66
2023-01-21T22:28:19.565Z,97420.09
2023-01-21T22:30:46.324Z,97416.03
2023-01-21T22:33:13.044Z,97411.75
2023-01-21T22:35:39.648Z,97412.16
2023-01-21T22:38:06.741Z,97399.13
2023-01-21T22:40:33.672Z,97392.41
2023-01-21T22:43:00.218Z,97407.06
2023-01-21T22:45:26.754Z,97405.22
2023-01-21T22:47:53.305Z,97418.44
2023-01-21T22:50:19.919Z,97391.59
2023-01-21T22:52:46.549Z,97400.56
2023-01-21T22:55:13.093Z,97424.75
2023-01-21T22:57:40.012Z,97408.50
2023-01-21T23:00:08.953Z,97385.50
2023-01-21T23:02:35.809Z,97421.09
2023-01-21T23:05:02.452Z,97404.81
2023-01-21T23:07:29.107Z,97408.09
2023-01-21T23:09:55.707Z,97405.66
2023-01-21T23:12:22.343Z,97368.41
2023-01-21T23:14:48.907Z,97397.31
2023-01-21T23:17:15.469Z,97400.38
2023-01-21T23:19:42.227Z,97394.66
2023-01-21T23:22:08.932Z,97397.13
2023-01-21T23:24:35.485Z,97398.53
2023-01-21T23:27:02.099Z,97396.50
2023-01-21T23:29:28.638Z,97414.00
2023-01-21T23:31:55.301Z,97388.78
2023-01-21T23:34:21.854Z,97405.44
2023-01-21T23:36:48.880Z,97393.66
2023-01-21T23:39:15.528Z,97395.09
2023-01-21T23:41:42.072Z,97399.97
2023-01-21T23:44:10.679Z,97363.56
2023-01-21T23:46:37.464Z,97352.78
2023-01-21T23:49:03.993Z,97390.22
2023-01-21T23:51:30.560Z,97385.53
2023-01-21T23:53:57.049Z,97387.97
2023-01-21T23:56:24.451Z,97373.09
2023-01-21T23:58:51.110Z,97379.81
